Foxboro, Wisconsin
Current Conditions -  °F | °C
As of 7:35 PM on Wednesday 22 Oct 2014 (Local Time) from KSUW Reporting Station
Overcast Overcast  
Wind Chill: 54°   Ceiling: 8000
Heat Index: 54°   Visibility: 10mi
Dew Point: 37°   Wind: 3mph
Humidity: 54%   Direction: 170°S
Pressure: 30.05"   Gusts: NA
Location:  46.5°N, 92.29°W
Report Text: KSUW 230035Z AUTO 17003KT 10SM BKN080 OVC100 12/03 A3005 RMK AO2 T01210030
Loading
Personal Weather Stations






























Interactive Weather Map
Tropical Storm Tracking
New forecast layout! Learn more

10-Day Weather Forecast

Advertisements
Track Severe Weather on mobile